Amunt
Inicio > meteoXarxa
Fes-te'n soci

METEOXARXA

la Pobla Tornesa
Ubicació Desert
Comarca la Plana Alta
Altitud (msnm) 729
Posició geogràfica 40° 5' 16.33" N, 00° 2' 19.58" E
Model Davis Vantage Pro
Presa de dades
Font de les dades Universitat Jaume I de Castelló
Estadístiques. Resum
Data Temperatura (ºC) Humitat (%) Pressió (hPa) Vent (km/h) Precipit. (mm)
Mínima Mitjana Màxima Mínima Mitjana Màxima Mínima Mitjana Màxima Predom. Mitjana Ràfega màxima Total Dies de pluja
Mínima Mitjana Màxima Mínima Mitjana Màxima
Últimes dades diàries
16-01-2017 6,2     8,4     11,1 NNW 104,6 0,0  
15-01-2017 3,3     5,8     7,9 N 40,9 77,2 0,0  
14-01-2017 2,9     4,1     6,2 NNW 45,2 91,7 0,0  
13-01-2017 3,3     7,7     13,5 NNW 38,6 85,3 0,0  
12-01-2017 10,9     13,7     16,4 SSW 13,2 48,3 0,0  
11-01-2017 6,0     7,7     11,4 N 28,3 86,9 0,0  
10-01-2017 6,7     8,8     10,4 NNW 40,9 35,2 0,3  
09-01-2017 6,1     7,2     9,4 SSE 12,7 32,2 0,0  
08-01-2017 5,9     9,0     12,1 NNW 12,9 49,9 0,3  
07-01-2017 5,3     6,4     8,3 SSE 9,3 33,8 0,0  
06-01-2017 5,5     6,6     8,2 S 6,9 30,6 0,0  
05-01-2017 6,2     9,1     12,5 NNW 20,0 66,0 0,0  
04-01-2017 9,6     11,4     13,7 NW 15,1 64,4 0,3  
03-01-2017 7,1     12,2     14,6 NW 9,2 30,6 0,0  
02-01-2017 5,3     6,5     8,7 SSW 12,6 33,8 0,3  
01-01-2017 5,9     6,9     8,7 S 14,3 40,2 0,0  
31-12-2016 5,3     6,9     9,9 S 7,7 24,1 0,0  
30-12-2016 5,1     6,7     9,9 N 11,7 33,8 0,0  
29-12-2016 6,3     12,1     17,3 S 6,9 22,5 0,0  
28-12-2016 8,0     9,0     11,8 NNE 15,4 40,2 0,0  
27-12-2016 9,1     10,7     12,3 E 5,6 29,0 0,0  
26-12-2016 11,1     13,8     16,7 SSE 6,3 22,5 0,0  
25-12-2016 8,6     12,7     18,1 NW 9,8 32,2 0,0  
24-12-2016 9,1     10,4     13,1 NW 21,1 48,3 0,0  
23-12-2016 9,3     10,7     13,4 S 12,1 33,8 0,0  
22-12-2016 7,7     10,2     12,8 NNW 15,8 41,8 0,0  
21-12-2016 5,2     7,9     10,9 NNW 29,3 59,5 0,0  
20-12-2016 5,4     7,3     10,9 NW 39,1 75,6 0,3  
19-12-2016 3,5     5,1     6,2 N 83,7 19,6  
18-12-2016 5,1     6,1     7,3 NNE 45,4 77,2 10,9  
17-12-2016 5,9     8,4     10,3 NNE 31,9 86,9 41,9  
16-12-2016 7,1     9,3     10,3 SE 11,6 43,5 19,8  
Dades del mes en curs (actualitzades fins l'últim dia disponible)
01/2017 2,9 6,0 10,9 8,2 6,2 10,8 16,4   21,3 104,6 1,2  
Últimes dades mensuals
12/2016 3,5 7,7 11,1 9,5 6,2 11,8 18,1 15,8 86,9 113,3 12
11/2016 4,0 8,8 14,3 11,2 8,3 14,0 19,9 19,1 90,1 89,4 13
10/2016 11,6 14,5 17,2 16,1 13,3 18,4 22,0 10,3 57,9 24,8 17
09/2016 12,8 17,4 27,3 19,8 18,4 22,6 33,2 14,0 90,1 56,5 9
08/2016 14,9 18,7 21,4 21,4 20,7 24,0 27,6 12,0 66,0 9,3 14
07/2016 13,6 19,0 27,4 21,6 19,3 24,3 29,9 13,7 56,3 1,2 4
06/2016 11,9 15,9 20,6 18,2 18,4 21,2 26,2 15,4 88,5 1,3 1
05/2016 5,1 11,2 15,8 13,8 12,2 16,7 22,5 17,0 91,7 27,0 11
04/2016 5,1 9,0 13,9 11,3 9,7 14,3 21,6 19,7 99,8 39,9 9
03/2016 3,1 6,6 13,2 9,1 7,1 12,1 18,2 20,5 91,7 24,7 8
02/2016 0,5 6,7 14,2 9,2 5,5 12,0 16,4 21,1 103,0 1,4 4
01/2016 2,2 7,3 12,4 9,6 6,4 12,1 17,3 18,5 93,3 2,8 6
12/2015 6,7 9,9 14,9 11,4 10,8 13,3 18,8 10,1 46,7 3,8 10
Dades de l'any en curs (actualitzades fins l'últim dia disponible)
2017 2,9 6,0 10,9 8,2 6,2 10,8 16,4   21,3 104,6 1,2  
Últimes dades anuals
2015 -2,7 12,3 15,3 14,7 17,3 17,4 33,0 16,4 132,0 459,1 76